Fisher Golf — FUGD — position and weather

sailwx.info

Track history (hours):
 
Tides and Currents Weather Stations Pressure Air Temp Water Temp Dewpoint Dewpoint Depression Visibility Wind Speed Wind Dir Waves Ship Positions

Fisher Golf

Last reported at 2014-Sep-20 05:32 UTC. Time now 2014-Oct-01 16:18 UTC.
Position N 46°29' W 003°26'.
Warning: this ship's position is 11 days out of date.

Length 20 m; draft 4 m.

Type: Fishing. MMSI: 228239000.

Date/timePositionNaut miles runAvg speedWind from/ knotsBaromVisibWave heightAir tempDewpointWater temp
2014-Sep-20 05:32N 46°29' W 003°26'1010.0
2014-Sep-20 04:33N 46°20' W 003°19'12 9.7
2014-Sep-20 03:21N 46°10' W 003°11'17 9.5
2014-Sep-20 01:33N 45°55' W 002°59'11 9.0
2014-Sep-20 00:22N 45°46' W 002°52'14 0.7
2014-Sep-19 04:33N 45°33' W 002°42'3 2.7
2014-Sep-19 03:33N 45°36' W 002°44'3 2.5
2014-Sep-19 02:33N 45°35' W 002°40'15 2.5
2014-Sep-18 20:26N 45°24' W 002°25'  
2014-Sep-15 20:09N 45°55' W 001°20'  
Track history (hours):
 
Tides and Currents Weather Stations Pressure Air Temp Water Temp Dewpoint Dewpoint Depression Visibility Wind Speed Wind Dir Waves Ship Positions

Fisher Golf

Last reported at 2014-Sep-20 05:32 UTC. Time now 2014-Oct-01 16:18 UTC.
Position N 46°29' W 003°26'.
Warning: this ship's position is 11 days out of date.

Length 20 m; draft 4 m.

Type: Fishing. MMSI: 228239000.

Date/timePositionNaut miles runAvg speedWind from/ knotsBaromVisibWave heightAir tempDewpointWater temp
2014-Sep-20 05:32N 46°29' W 003°26'1010.0
2014-Sep-20 04:33N 46°20' W 003°19'12 9.7
2014-Sep-20 03:21N 46°10' W 003°11'17 9.5
2014-Sep-20 01:33N 45°55' W 002°59'11 9.0
2014-Sep-20 00:22N 45°46' W 002°52'14 0.7
2014-Sep-19 04:33N 45°33' W 002°42'3 2.7
2014-Sep-19 03:33N 45°36' W 002°44'3 2.5
2014-Sep-19 02:33N 45°35' W 002°40'15 2.5
2014-Sep-18 20:26N 45°24' W 002°25'  
2014-Sep-15 20:09N 45°55' W 001°20'  

Dump ship's entire track history